createdAt,value
2024-01-20T00:00:24.228Z,54.73
2024-01-20T00:01:24.113Z,53.90
2024-01-20T00:02:24.178Z,53.78
2024-01-20T00:03:24.252Z,55.18
2024-01-20T00:04:24.351Z,57.97
2024-01-20T00:05:24.548Z,59.90
2024-01-20T00:06:24.303Z,63.36
2024-01-20T00:07:24.305Z,65.76
2024-01-20T00:08:24.367Z,70.34
2024-01-20T00:09:29.005Z,74.67
2024-01-20T00:10:25.373Z,74.83
2024-01-20T00:11:24.413Z,75.84
2024-01-20T00:12:24.364Z,78.70
2024-01-20T00:13:24.388Z,84.16
2024-01-20T00:14:24.436Z,92.70
2024-01-20T00:15:24.380Z,96.00
2024-01-20T00:16:24.383Z,96.26
2024-01-20T00:17:27.146Z,106.05
2024-01-20T00:18:24.504Z,106.19
2024-01-20T00:19:24.389Z,106.22
2024-01-20T00:20:24.418Z,101.92
2024-01-20T00:21:24.389Z,96.93
2024-01-20T00:22:24.383Z,94.16
2024-01-20T00:23:24.414Z,90.73
2024-01-20T00:24:24.380Z,82.16
2024-01-20T00:25:24.377Z,75.62
2024-01-20T00:26:24.409Z,72.80
2024-01-20T00:27:24.427Z,70.04
2024-01-20T00:28:24.430Z,67.83
2024-01-20T00:29:24.411Z,68.62
2024-01-20T00:30:24.421Z,68.36
2024-01-20T00:31:24.428Z,65.15
2024-01-20T00:32:24.481Z,63.15
2024-01-20T00:33:24.530Z,60.67
2024-01-20T00:34:24.425Z,57.20
2024-01-20T00:35:24.460Z,54.63
2024-01-20T00:36:24.420Z,54.02
2024-01-20T00:37:24.429Z,51.87
2024-01-20T00:38:24.520Z,50.98
2024-01-20T00:39:24.435Z,50.74
2024-01-20T00:40:24.432Z,50.22
2024-01-20T00:41:24.483Z,53.47
2024-01-20T00:42:24.460Z,58.10
2024-01-20T00:43:24.454Z,62.05
2024-01-20T00:44:24.441Z,65.88
2024-01-20T00:45:24.468Z,65.90
2024-01-20T00:46:24.457Z,65.13
2024-01-20T00:47:24.492Z,66.65
2024-01-20T00:48:24.483Z,69.05
2024-01-20T00:49:24.473Z,71.36
2024-01-20T00:50:24.552Z,74.33
2024-01-20T00:51:25.483Z,74.43
2024-01-20T00:52:24.512Z,75.04
2024-01-20T00:53:24.536Z,79.60
2024-01-20T00:54:24.498Z,89.93
2024-01-20T00:55:24.510Z,104.34
2024-01-20T00:56:24.527Z,109.50
2024-01-20T00:57:24.501Z,111.71
2024-01-20T00:58:24.512Z,110.54
2024-01-20T00:59:24.495Z,112.77
2024-01-20T01:00:24.515Z,114.71
2024-01-20T01:01:24.573Z,115.22
2024-01-20T01:02:24.738Z,108.66
2024-01-20T01:03:24.714Z,102.11
2024-01-20T01:04:24.755Z,92.20
2024-01-20T01:05:24.855Z,82.90
2024-01-20T01:06:24.995Z,75.63
2024-01-20T01:07:24.910Z,69.94
2024-01-20T01:08:25.080Z,72.30
2024-01-20T01:09:25.061Z,70.30
2024-01-20T01:10:25.083Z,68.90
2024-01-20T01:11:25.128Z,67.21
2024-01-20T01:12:25.109Z,65.08
2024-01-20T01:13:25.132Z,60.48
2024-01-20T01:14:25.202Z,57.07
2024-01-20T01:15:25.177Z,53.13
2024-01-20T01:16:25.236Z,50.00
2024-01-20T01:17:25.310Z,50.35
2024-01-20T01:18:25.279Z,50.16
2024-01-20T01:19:25.320Z,50.39
2024-01-20T01:20:25.467Z,53.82
2024-01-20T01:21:25.437Z,61.68
2024-01-20T01:22:25.470Z,67.63
2024-01-20T01:23:25.593Z,72.62
2024-01-20T01:24:25.591Z,79.32
2024-01-20T01:25:25.652Z,87.84
2024-01-20T01:26:27.658Z,96.70
2024-01-20T01:27:25.815Z,105.97
2024-01-20T01:28:25.718Z,113.64
2024-01-20T01:29:25.835Z,120.38
2024-01-20T01:30:25.716Z,126.14
2024-01-20T01:31:25.721Z,131.89
2024-01-20T01:32:25.825Z,135.75
2024-01-20T01:33:25.782Z,139.88
2024-01-20T01:34:25.729Z,138.79
2024-01-20T01:35:25.751Z,133.45
2024-01-20T01:36:25.738Z,129.55
2024-01-20T01:37:25.747Z,126.16
2024-01-20T01:38:25.752Z,119.33
2024-01-20T01:39:25.778Z,117.62
2024-01-20T01:40:25.752Z,117.26
2024-01-20T01:41:25.741Z,115.29
2024-01-20T01:42:25.760Z,112.67
2024-01-20T01:43:25.750Z,113.57
2024-01-20T01:44:25.762Z,115.39
2024-01-20T01:45:25.744Z,117.54
2024-01-20T01:46:25.767Z,119.40
2024-01-20T01:47:25.772Z,121.25
2024-01-20T01:48:25.791Z,123.65
2024-01-20T01:49:25.782Z,125.48
2024-01-20T01:50:25.843Z,127.89
2024-01-20T01:51:25.769Z,130.80
2024-01-20T01:52:25.776Z,133.04
2024-01-20T01:53:25.769Z,137.75
2024-01-20T01:54:25.926Z,138.35
2024-01-20T01:55:25.800Z,139.72
2024-01-20T01:56:25.796Z,140.80
2024-01-20T01:57:25.859Z,140.34
2024-01-20T01:58:25.795Z,140.77
2024-01-20T01:59:25.821Z,140.40
2024-01-20T02:00:25.794Z,141.99
2024-01-20T02:01:25.790Z,144.09
2024-01-20T02:02:25.780Z,147.24
2024-01-20T02:03:25.899Z,149.26
2024-01-20T02:04:25.836Z,151.05
2024-01-20T02:05:25.813Z,152.41
2024-01-20T02:06:25.822Z,153.25
2024-01-20T02:07:25.795Z,149.84
2024-01-20T02:08:25.807Z,151.55
2024-01-20T02:09:25.839Z,152.57
2024-01-20T02:10:25.806Z,152.18
2024-01-20T02:11:25.796Z,151.40
2024-01-20T02:12:25.826Z,151.12
2024-01-20T02:13:25.797Z,152.07
2024-01-20T02:14:25.826Z,153.42
2024-01-20T02:15:25.895Z,156.12
2024-01-20T02:16:25.880Z,160.32
2024-01-20T02:17:25.926Z,158.24
2024-01-20T02:18:26.104Z,159.72
2024-01-20T02:19:26.050Z,161.24
2024-01-20T02:20:26.102Z,161.61
2024-01-20T02:21:26.200Z,160.59
2024-01-20T02:22:26.198Z,157.42
2024-01-20T02:23:26.217Z,157.38
2024-01-20T02:24:26.275Z,158.66
2024-01-20T02:25:26.267Z,159.37
2024-01-20T02:26:26.270Z,159.72
2024-01-20T02:27:26.341Z,159.88
2024-01-20T02:28:26.323Z,161.91
2024-01-20T02:29:26.293Z,162.65
2024-01-20T02:30:26.397Z,164.31
2024-01-20T02:31:26.437Z,164.59
2024-01-20T02:32:26.500Z,162.74
2024-01-20T02:33:26.627Z,159.22
2024-01-20T02:34:26.707Z,155.54
2024-01-20T02:35:26.626Z,151.12
2024-01-20T02:36:26.684Z,146.80
2024-01-20T02:37:26.680Z,143.82
2024-01-20T02:38:26.730Z,141.50
2024-01-20T02:39:26.853Z,140.23
2024-01-20T02:40:26.814Z,140.60
2024-01-20T02:41:26.878Z,140.59
2024-01-20T02:42:26.985Z,141.07
2024-01-20T02:43:26.920Z,143.04
2024-01-20T02:44:26.967Z,145.86
2024-01-20T02:45:27.048Z,148.07
2024-01-20T02:46:27.029Z,148.66
2024-01-20T02:47:27.073Z,149.33
2024-01-20T02:48:27.186Z,151.75
2024-01-20T02:49:27.277Z,154.07
2024-01-20T02:50:27.143Z,155.01
2024-01-20T02:51:27.226Z,155.58
2024-01-20T02:52:27.237Z,155.29
2024-01-20T02:53:27.276Z,156.65
2024-01-20T02:54:27.402Z,157.22
2024-01-20T02:55:27.367Z,156.75
2024-01-20T02:56:27.420Z,158.21
2024-01-20T02:57:27.531Z,160.22
2024-01-20T02:58:27.492Z,160.57
2024-01-20T02:59:27.561Z,160.93
2024-01-20T03:00:27.613Z,160.29
2024-01-20T03:01:27.622Z,159.76
2024-01-20T03:02:27.636Z,161.26
2024-01-20T03:03:27.798Z,164.02
2024-01-20T03:04:27.845Z,169.63
2024-01-20T03:05:27.819Z,178.97
2024-01-20T03:06:27.829Z,191.82
2024-01-20T03:07:27.887Z,198.96
2024-01-20T03:08:27.915Z,200.07
2024-01-20T03:09:28.053Z,199.03
2024-01-20T03:10:28.052Z,194.57
2024-01-20T03:11:28.120Z,192.08
2024-01-20T03:12:28.210Z,187.26
2024-01-20T03:13:28.213Z,185.11
2024-01-20T03:14:28.237Z,183.87
2024-01-20T03:15:28.290Z,179.33
2024-01-20T03:16:28.301Z,173.49
2024-01-20T03:17:28.325Z,168.84
2024-01-20T03:18:28.352Z,164.29
2024-01-20T03:19:28.366Z,159.53
2024-01-20T03:20:28.384Z,154.17
2024-01-20T03:21:28.592Z,148.91
2024-01-20T03:22:28.518Z,145.21
2024-01-20T03:23:28.556Z,141.21
2024-01-20T03:24:28.634Z,137.40
2024-01-20T03:25:28.678Z,133.58
2024-01-20T03:26:28.799Z,130.55
2024-01-20T03:27:28.839Z,128.45
2024-01-20T03:28:28.797Z,127.26
2024-01-20T03:29:28.838Z,127.07
2024-01-20T03:30:28.929Z,124.96
2024-01-20T03:31:28.973Z,121.83
2024-01-20T03:32:29.048Z,119.45
2024-01-20T03:33:29.155Z,116.03
2024-01-20T03:34:29.281Z,114.07
2024-01-20T03:35:29.158Z,111.13
2024-01-20T03:36:29.244Z,109.71
2024-01-20T03:37:29.232Z,108.52
2024-01-20T03:38:29.270Z,107.75
2024-01-20T03:39:29.375Z,108.75
2024-01-20T03:40:30.054Z,109.46
2024-01-20T03:41:29.386Z,110.44
2024-01-20T03:42:29.488Z,111.59
2024-01-20T03:43:29.424Z,109.59
2024-01-20T03:44:29.480Z,107.30
2024-01-20T03:45:29.638Z,105.31
2024-01-20T03:46:29.581Z,104.77
2024-01-20T03:47:31.050Z,104.49
2024-01-20T03:48:29.732Z,106.33
2024-01-20T03:49:29.788Z,111.45
2024-01-20T03:50:29.843Z,120.26
2024-01-20T03:51:29.925Z,132.34
2024-01-20T03:52:29.909Z,147.10
2024-01-20T03:53:29.959Z,159.11
2024-01-20T03:54:30.091Z,171.48
2024-01-20T03:55:30.037Z,186.63
2024-01-20T03:56:30.067Z,201.20
2024-01-20T03:57:30.209Z,212.61
2024-01-20T03:58:30.123Z,219.28
2024-01-20T03:59:30.147Z,217.88
2024-01-20T04:00:30.244Z,208.31
2024-01-20T04:01:30.200Z,199.73
2024-01-20T04:02:30.241Z,200.00
2024-01-20T04:03:30.350Z,202.99
2024-01-20T04:04:30.416Z,208.83
2024-01-20T04:05:30.405Z,219.38
2024-01-20T04:06:30.477Z,222.61
2024-01-20T04:07:30.481Z,218.70
2024-01-20T04:08:30.499Z,208.66
2024-01-20T04:09:30.548Z,198.37
2024-01-20T04:10:30.581Z,192.09
2024-01-20T04:11:30.618Z,184.01
2024-01-20T04:12:30.770Z,176.04
2024-01-20T04:13:30.717Z,169.04
2024-01-20T04:14:30.758Z,162.84
2024-01-20T04:15:30.860Z,157.24
2024-01-20T04:16:30.881Z,151.39
2024-01-20T04:17:30.934Z,147.38
2024-01-20T04:18:31.032Z,147.77
2024-01-20T04:19:31.041Z,148.02
2024-01-20T04:20:30.992Z,146.27
2024-01-20T04:21:31.043Z,147.27
2024-01-20T04:22:31.186Z,147.64
2024-01-20T04:23:31.193Z,148.80
2024-01-20T04:24:31.303Z,150.07
2024-01-20T04:25:31.245Z,148.79
2024-01-20T04:26:31.277Z,148.82
2024-01-20T04:27:31.384Z,147.90
2024-01-20T04:28:31.355Z,144.10
2024-01-20T04:29:31.404Z,139.59
2024-01-20T04:30:31.489Z,134.74
2024-01-20T04:31:31.506Z,130.52
2024-01-20T04:32:31.540Z,127.87
2024-01-20T04:33:31.611Z,126.36
2024-01-20T04:34:32.041Z,125.66
2024-01-20T04:35:31.645Z,125.26
2024-01-20T04:36:31.705Z,125.68
2024-01-20T04:37:31.718Z,125.98
2024-01-20T04:38:31.764Z,125.53
2024-01-20T04:39:32.558Z,125.06
2024-01-20T04:40:31.903Z,123.53
2024-01-20T04:41:31.986Z,122.25
2024-01-20T04:42:32.176Z,120.80
2024-01-20T04:43:32.103Z,119.43
2024-01-20T04:44:32.532Z,117.26
2024-01-20T04:45:32.306Z,115.04
2024-01-20T04:46:32.315Z,113.88
2024-01-20T04:47:32.399Z,113.41
2024-01-20T04:48:39.944Z,50.00
2024-01-20T04:49:39.827Z,50.00
2024-01-20T04:50:39.805Z,50.00
2024-01-20T04:51:39.811Z,50.00
2024-01-20T04:52:39.801Z,50.00
2024-01-20T04:53:39.824Z,53.12
2024-01-20T04:54:39.892Z,51.55
2024-01-20T04:55:39.800Z,54.84
2024-01-20T04:56:39.800Z,58.09
2024-01-20T04:57:39.878Z,70.17
2024-01-20T04:58:39.798Z,84.12
2024-01-20T04:59:39.814Z,100.13
2024-01-20T05:00:39.924Z,110.36
2024-01-20T05:01:40.943Z,114.14
2024-01-20T05:02:39.825Z,112.33
2024-01-20T05:03:39.979Z,104.42
2024-01-20T05:04:39.865Z,99.76
2024-01-20T05:05:39.886Z,100.98
2024-01-20T05:06:39.888Z,106.45
2024-01-20T05:07:39.832Z,133.73
2024-01-20T05:08:39.877Z,177.75
2024-01-20T05:09:39.866Z,199.68
2024-01-20T05:10:39.844Z,184.09
2024-01-20T05:11:39.838Z,193.28
2024-01-20T05:12:39.895Z,186.64
2024-01-20T05:13:39.861Z,162.01
2024-01-20T05:14:39.861Z,138.86
2024-01-20T05:15:39.926Z,120.99
2024-01-20T05:16:39.868Z,112.47
2024-01-20T05:17:39.891Z,114.58
2024-01-20T05:18:40.067Z,134.16
2024-01-20T05:19:40.089Z,154.06
2024-01-20T05:20:40.042Z,159.58
2024-01-20T05:21:39.995Z,154.54
2024-01-20T05:22:40.002Z,145.09
2024-01-20T05:23:40.016Z,149.72
2024-01-20T05:24:40.089Z,151.47
2024-01-20T05:25:40.136Z,153.68
2024-01-20T05:26:40.182Z,154.78
2024-01-20T05:27:40.250Z,152.63
2024-01-20T05:28:40.323Z,151.34
2024-01-20T05:29:40.386Z,150.61
2024-01-20T05:30:40.426Z,157.02
2024-01-20T05:31:40.464Z,172.99
2024-01-20T05:32:40.695Z,186.91
2024-01-20T05:33:40.786Z,195.77
2024-01-20T05:34:40.740Z,195.26
2024-01-20T05:35:40.740Z,186.46
2024-01-20T05:36:40.783Z,175.10
2024-01-20T05:37:40.840Z,168.59
2024-01-20T05:38:40.912Z,179.09
2024-01-20T05:39:40.970Z,194.42
2024-01-20T05:40:40.999Z,200.19
2024-01-20T05:41:41.063Z,202.52
2024-01-20T05:42:41.127Z,212.07
2024-01-20T05:43:41.164Z,216.21
2024-01-20T05:44:41.268Z,212.70
2024-01-20T05:45:41.324Z,205.86
2024-01-20T05:46:41.314Z,200.85
2024-01-20T05:47:41.402Z,200.00
2024-01-20T05:48:41.573Z,193.57
2024-01-20T05:49:41.461Z,186.45
2024-01-20T05:50:41.431Z,181.63
2024-01-20T05:51:41.464Z,178.58
2024-01-20T05:52:41.493Z,174.13
2024-01-20T05:53:41.503Z,165.80
2024-01-20T05:54:41.557Z,162.23
2024-01-20T05:55:41.535Z,168.79
2024-01-20T05:56:41.603Z,169.21
2024-01-20T05:57:41.673Z,173.61
2024-01-20T05:58:41.746Z,189.39
2024-01-20T05:59:41.761Z,204.03
2024-01-20T06:00:41.966Z,211.79
2024-01-20T06:01:41.924Z,224.66
2024-01-20T06:02:42.022Z,233.28
2024-01-20T06:03:42.141Z,238.89
2024-01-20T06:04:42.069Z,239.69
2024-01-20T06:05:42.088Z,241.22
2024-01-20T06:06:42.168Z,246.77
2024-01-20T06:07:42.093Z,249.33
2024-01-20T06:08:42.126Z,247.45
2024-01-20T06:09:42.182Z,248.08
2024-01-20T06:10:42.249Z,245.58
2024-01-20T06:11:42.308Z,241.34
2024-01-20T06:12:42.335Z,237.70
2024-01-20T06:13:42.373Z,235.22
2024-01-20T06:14:42.422Z,234.18
2024-01-20T06:15:42.490Z,237.32
2024-01-20T06:16:42.516Z,244.24
2024-01-20T06:17:42.629Z,253.28
2024-01-20T06:18:42.683Z,259.16
2024-01-20T06:19:42.846Z,259.95
2024-01-20T06:20:42.736Z,255.04
2024-01-20T06:21:42.808Z,247.10
2024-01-20T06:22:42.840Z,238.80
2024-01-20T06:23:42.876Z,230.02
2024-01-20T06:24:42.897Z,222.96
2024-01-20T06:25:42.917Z,216.15
2024-01-20T06:26:42.955Z,209.44
2024-01-20T06:27:43.012Z,203.30
2024-01-20T06:28:43.123Z,196.84
2024-01-20T06:29:43.157Z,191.55
2024-01-20T06:30:43.221Z,187.34
2024-01-20T06:31:43.270Z,183.17
2024-01-20T06:32:43.430Z,186.32
2024-01-20T06:33:43.474Z,188.26
2024-01-20T06:34:43.542Z,185.64
2024-01-20T06:35:43.500Z,186.55
2024-01-20T06:36:43.616Z,185.45
2024-01-20T06:37:43.666Z,183.00
2024-01-20T06:38:43.683Z,184.50
2024-01-20T06:39:43.737Z,186.16
2024-01-20T06:40:43.817Z,186.89
2024-01-20T06:41:43.882Z,186.72
2024-01-20T06:42:43.891Z,182.64
2024-01-20T06:43:43.937Z,176.70
2024-01-20T06:44:44.002Z,175.11
2024-01-20T06:45:44.133Z,175.59
2024-01-20T06:46:44.083Z,173.33
2024-01-20T06:47:44.219Z,173.07
2024-01-20T06:48:44.393Z,177.74
2024-01-20T06:49:44.294Z,183.19
2024-01-20T06:50:44.249Z,188.55
2024-01-20T06:51:44.299Z,192.27
2024-01-20T06:52:44.321Z,194.71
2024-01-20T06:53:44.388Z,197.04
2024-01-20T06:54:44.357Z,197.48
2024-01-20T06:55:44.390Z,193.91
2024-01-20T06:56:44.421Z,193.18
2024-01-20T06:57:44.454Z,190.69
2024-01-20T06:58:44.584Z,186.37
2024-01-20T06:59:44.587Z,188.96
2024-01-20T07:00:44.809Z,192.30
2024-01-20T07:01:44.720Z,193.78
2024-01-20T07:02:44.788Z,193.54
2024-01-20T07:03:44.943Z,189.37
2024-01-20T07:04:44.878Z,185.78
2024-01-20T07:05:44.909Z,184.47
2024-01-20T07:06:45.055Z,180.89
2024-01-20T07:07:44.989Z,177.58
2024-01-20T07:08:45.059Z,175.80
2024-01-20T07:09:45.083Z,175.03
2024-01-20T07:10:45.157Z,173.47
2024-01-20T07:11:45.181Z,170.08
2024-01-20T07:12:45.327Z,167.26
2024-01-20T07:13:45.303Z,171.23
2024-01-20T07:14:45.317Z,172.88
2024-01-20T07:15:45.372Z,171.12
2024-01-20T07:16:45.402Z,170.85
2024-01-20T07:17:45.506Z,175.10
2024-01-20T07:18:45.602Z,176.56
2024-01-20T07:19:45.657Z,174.55
2024-01-20T07:20:45.625Z,172.04
2024-01-20T07:21:45.635Z,171.01
2024-01-20T07:22:45.694Z,175.61
2024-01-20T07:23:45.743Z,181.16
2024-01-20T07:24:45.787Z,185.07
2024-01-20T07:25:45.829Z,187.03
2024-01-20T07:26:45.870Z,187.00
2024-01-20T07:27:45.878Z,182.54
2024-01-20T07:28:45.906Z,180.00
2024-01-20T07:29:45.950Z,181.48
2024-01-20T07:30:46.016Z,180.44
2024-01-20T07:31:46.084Z,183.33
2024-01-20T07:32:46.158Z,189.84
2024-01-20T07:33:46.261Z,192.02
2024-01-20T07:34:46.277Z,192.71
2024-01-20T07:35:46.280Z,188.55
2024-01-20T07:36:46.434Z,188.69
2024-01-20T07:37:46.417Z,188.71
2024-01-20T07:38:46.502Z,189.41
2024-01-20T07:39:46.568Z,188.41
2024-01-20T07:40:46.626Z,188.68
2024-01-20T07:41:46.688Z,192.43
2024-01-20T07:42:46.724Z,196.23
2024-01-20T07:43:46.849Z,198.50
2024-01-20T07:44:46.906Z,199.46
2024-01-20T07:45:47.034Z,196.08
2024-01-20T07:46:47.034Z,192.41
2024-01-20T07:47:47.133Z,187.12
2024-01-20T07:48:47.479Z,182.77
2024-01-20T07:49:47.345Z,180.84
2024-01-20T07:50:47.250Z,180.37
2024-01-20T07:51:47.304Z,177.46
2024-01-20T07:52:47.382Z,174.17
2024-01-20T07:53:47.441Z,168.97
2024-01-20T07:54:47.478Z,163.18
2024-01-20T07:55:47.510Z,158.82
2024-01-20T07:56:47.553Z,156.48
2024-01-20T07:57:47.623Z,158.83
2024-01-20T07:58:47.689Z,163.54
2024-01-20T07:59:47.748Z,169.38
2024-01-20T08:00:47.849Z,174.50
2024-01-20T08:01:47.788Z,179.38
2024-01-20T08:02:47.830Z,183.57
2024-01-20T08:03:47.949Z,188.94
2024-01-20T08:04:47.905Z,193.91
2024-01-20T08:05:47.972Z,195.79
2024-01-20T08:06:48.094Z,196.97
2024-01-20T08:07:48.062Z,198.96
2024-01-20T08:08:48.110Z,199.35
2024-01-20T08:09:48.134Z,196.10
2024-01-20T08:10:48.193Z,198.07
2024-01-20T08:11:48.240Z,200.00
2024-01-20T08:12:48.248Z,200.13
2024-01-20T08:13:48.290Z,200.14
2024-01-20T08:14:48.323Z,199.95
2024-01-20T08:15:48.403Z,199.55
2024-01-20T08:16:48.394Z,199.19
2024-01-20T08:17:48.434Z,195.80
2024-01-20T08:18:48.568Z,192.59
2024-01-20T08:19:48.609Z,190.59
2024-01-20T08:20:48.561Z,185.70
2024-01-20T08:21:48.633Z,185.12
2024-01-20T08:22:48.698Z,183.20
2024-01-20T08:23:48.771Z,183.59
2024-01-20T08:24:48.888Z,183.29
2024-01-20T08:25:48.896Z,180.20
2024-01-20T08:26:49.342Z,179.45
2024-01-20T08:27:49.010Z,178.44
2024-01-20T08:28:49.070Z,178.56
2024-01-20T08:29:49.125Z,178.12
2024-01-20T08:30:49.238Z,176.73
2024-01-20T08:31:49.195Z,176.23
2024-01-20T08:32:49.325Z,175.91
2024-01-20T08:33:49.470Z,175.86
2024-01-20T08:34:49.390Z,178.14
2024-01-20T08:35:49.427Z,181.45
2024-01-20T08:36:49.484Z,184.98
2024-01-20T08:37:49.549Z,188.38
2024-01-20T08:38:49.618Z,190.45
2024-01-20T08:39:49.634Z,191.70
2024-01-20T08:40:49.717Z,192.03
2024-01-20T08:41:49.860Z,191.62
2024-01-20T08:42:49.834Z,191.73
2024-01-20T08:43:49.901Z,191.41
2024-01-20T08:44:49.978Z,192.06
2024-01-20T08:45:50.004Z,192.14
2024-01-20T08:46:50.037Z,192.30
2024-01-20T08:47:50.080Z,192.00
2024-01-20T08:48:50.164Z,191.46
2024-01-20T08:49:50.162Z,192.43
2024-01-20T08:50:50.193Z,191.10
2024-01-20T08:51:50.229Z,190.03
2024-01-20T08:52:50.312Z,189.21
2024-01-20T08:53:50.340Z,187.61
2024-01-20T08:54:50.438Z,185.22
2024-01-20T08:55:50.461Z,182.39
2024-01-20T08:56:50.510Z,178.71
2024-01-20T08:57:50.578Z,175.66
2024-01-20T08:58:50.620Z,170.93
2024-01-20T08:59:50.682Z,168.43
2024-01-20T09:00:50.828Z,162.86
2024-01-20T09:01:50.780Z,158.68
2024-01-20T09:02:50.844Z,156.36
2024-01-20T09:03:50.930Z,154.61
2024-01-20T09:04:50.869Z,152.03
2024-01-20T09:05:50.900Z,146.62
2024-01-20T09:06:50.974Z,142.19
2024-01-20T09:07:50.942Z,138.98
2024-01-20T09:08:50.945Z,137.24
2024-01-20T09:09:50.959Z,135.55
2024-01-20T09:10:51.022Z,133.96
2024-01-20T09:11:51.075Z,135.67
2024-01-20T09:12:51.117Z,138.52
2024-01-20T09:13:51.173Z,143.59
2024-01-20T09:14:51.285Z,146.08
2024-01-20T09:15:51.397Z,148.25
2024-01-20T09:16:51.413Z,147.50
2024-01-20T09:17:51.446Z,145.61
2024-01-20T09:18:52.006Z,143.73
2024-01-20T09:19:51.640Z,143.61
2024-01-20T09:20:51.505Z,146.01
2024-01-20T09:21:51.530Z,145.41
2024-01-20T09:22:51.584Z,140.14
2024-01-20T09:23:51.618Z,137.02
2024-01-20T09:24:51.664Z,134.85
2024-01-20T09:25:51.700Z,132.44
2024-01-20T09:26:51.731Z,130.24
2024-01-20T09:27:51.785Z,128.41
2024-01-20T09:28:51.870Z,124.97
2024-01-20T09:29:51.877Z,123.19
2024-01-20T09:30:51.908Z,120.36
2024-01-20T09:31:51.934Z,119.20
2024-01-20T09:32:52.038Z,119.47
2024-01-20T09:33:52.124Z,122.79
2024-01-20T09:34:52.046Z,124.68
2024-01-20T09:35:52.041Z,125.79
2024-01-20T09:36:52.063Z,127.09
2024-01-20T09:37:52.083Z,125.59
2024-01-20T09:38:52.055Z,122.76
2024-01-20T09:39:52.106Z,120.88
2024-01-20T09:40:52.164Z,118.72
2024-01-20T09:41:52.143Z,115.89
2024-01-20T09:42:52.187Z,115.51
2024-01-20T09:43:52.260Z,113.11
2024-01-20T09:44:52.307Z,110.38
2024-01-20T09:45:52.403Z,110.53
2024-01-20T09:46:52.471Z,108.42
2024-01-20T09:47:52.619Z,108.09
2024-01-20T09:48:52.693Z,108.64
2024-01-20T09:49:52.693Z,106.31
2024-01-20T09:50:52.663Z,104.08
2024-01-20T09:51:52.743Z,100.72
2024-01-20T09:52:52.813Z,97.06
2024-01-20T09:53:52.844Z,93.82
2024-01-20T09:54:52.897Z,92.35
2024-01-20T09:55:52.958Z,93.23
2024-01-20T09:56:53.000Z,90.42
2024-01-20T09:57:53.045Z,87.03
2024-01-20T09:58:53.078Z,83.09
2024-01-20T09:59:53.112Z,77.43
2024-01-20T10:00:53.225Z,73.58
2024-01-20T10:01:53.220Z,68.53
2024-01-20T10:02:53.340Z,63.66
2024-01-20T10:03:53.382Z,59.16
2024-01-20T10:04:53.418Z,58.33
2024-01-20T10:05:53.559Z,55.57
2024-01-20T10:06:53.505Z,50.12
2024-01-20T10:07:53.539Z,50.00
2024-01-20T10:08:53.587Z,50.68
2024-01-20T10:09:53.609Z,49.90
2024-01-20T10:10:53.604Z,50.00
2024-01-20T10:11:53.644Z,50.05
2024-01-20T10:12:53.689Z,50.72
2024-01-20T10:13:53.720Z,51.36
2024-01-20T10:14:53.775Z,52.24
2024-01-20T10:15:53.893Z,53.28
2024-01-20T10:16:53.905Z,54.54
2024-01-20T10:17:53.973Z,53.84
2024-01-20T10:18:54.030Z,51.32
2024-01-20T10:19:53.986Z,52.14
2024-01-20T10:20:54.007Z,53.68
2024-01-20T10:21:54.029Z,58.42
2024-01-20T10:22:54.116Z,63.68
2024-01-20T10:23:54.073Z,65.31
2024-01-20T10:24:54.060Z,64.38
2024-01-20T10:25:54.114Z,62.88
2024-01-20T10:26:54.141Z,61.33
2024-01-20T10:27:54.170Z,57.66
2024-01-20T10:28:54.182Z,54.22
2024-01-20T10:29:54.189Z,50.56
2024-01-20T10:30:54.293Z,50.31
2024-01-20T10:31:54.277Z,49.75
2024-01-20T10:33:04.124Z,50.00
2024-01-20T10:33:55.389Z,47.99
2024-01-20T10:34:54.412Z,44.32
2024-01-20T10:35:54.355Z,40.43
2024-01-20T10:36:54.331Z,39.15
2024-01-20T10:37:54.314Z,40.85
2024-01-20T10:38:54.318Z,45.82
2024-01-20T10:39:54.349Z,49.22
2024-01-20T10:40:54.374Z,48.04
2024-01-20T10:41:54.330Z,50.25
2024-01-20T10:42:55.725Z,49.09
2024-01-20T10:43:54.433Z,50.17
2024-01-20T10:44:54.456Z,50.10
2024-01-20T10:45:54.553Z,50.00
2024-01-20T10:46:54.555Z,50.12
2024-01-20T10:47:54.725Z,50.53
2024-01-20T10:48:54.897Z,51.34
2024-01-20T10:49:54.846Z,54.44
2024-01-20T10:50:54.759Z,55.49
2024-01-20T10:51:54.891Z,56.27
2024-01-20T10:52:54.872Z,55.69
2024-01-20T10:53:54.901Z,54.17
2024-01-20T10:54:54.948Z,53.81
2024-01-20T10:55:55.027Z,55.31
2024-01-20T10:56:55.065Z,52.92
2024-01-20T10:57:55.092Z,50.00
2024-01-20T10:58:55.149Z,50.00
2024-01-20T10:59:55.184Z,50.00
2024-01-20T11:00:55.382Z,49.98
2024-01-20T11:01:55.271Z,50.65
2024-01-20T11:02:55.334Z,51.36
2024-01-20T11:03:55.474Z,51.12
2024-01-20T11:04:55.422Z,50.35
2024-01-20T11:05:55.478Z,50.21
2024-01-20T11:06:55.519Z,50.00
2024-01-20T11:07:55.487Z,50.44
2024-01-20T11:08:55.573Z,50.08
2024-01-20T11:09:55.605Z,50.90
2024-01-20T11:10:55.714Z,52.96
2024-01-20T11:11:55.732Z,54.02
2024-01-20T11:12:55.776Z,52.38
2024-01-20T11:13:55.843Z,52.07
2024-01-20T11:14:55.878Z,49.65
2024-01-20T11:15:55.927Z,50.00
2024-01-20T11:16:55.955Z,50.00
2024-01-20T11:17:56.062Z,48.92
2024-01-20T11:18:56.126Z,49.52
2024-01-20T11:19:56.174Z,49.92
2024-01-20T11:20:56.187Z,49.71
2024-01-20T11:21:56.181Z,50.30
2024-01-20T11:22:56.208Z,50.11
2024-01-20T11:23:56.207Z,50.50
2024-01-20T11:24:56.347Z,50.13
2024-01-20T11:25:56.276Z,50.00
2024-01-20T11:26:56.290Z,50.26
2024-01-20T11:27:56.334Z,50.42
2024-01-20T11:28:56.389Z,50.13
2024-01-20T11:29:56.381Z,50.48
2024-01-20T11:30:56.463Z,50.78
2024-01-20T11:31:56.391Z,50.53
2024-01-20T11:32:56.541Z,50.08
2024-01-20T11:33:56.576Z,50.23
2024-01-20T11:34:56.490Z,50.00
2024-01-20T11:35:56.562Z,50.83
2024-01-20T11:36:56.599Z,51.39
2024-01-20T11:37:56.622Z,51.64
2024-01-20T11:38:56.661Z,51.09
2024-01-20T11:39:56.700Z,49.89
2024-01-20T11:40:56.750Z,50.08
2024-01-20T11:41:56.826Z,50.26
2024-01-20T11:42:56.863Z,50.04
2024-01-20T11:43:56.872Z,50.59
2024-01-20T11:44:56.969Z,50.44
2024-01-20T11:45:56.983Z,50.85
2024-01-20T11:46:56.992Z,50.00
2024-01-20T11:47:57.096Z,50.05
2024-01-20T11:48:57.124Z,50.17
2024-01-20T11:49:57.104Z,50.55
2024-01-20T11:50:57.199Z,50.69
2024-01-20T11:51:57.138Z,50.48
2024-01-20T11:52:57.174Z,50.85
2024-01-20T11:53:57.246Z,50.21
2024-01-20T11:54:57.249Z,50.56
2024-01-20T11:55:57.280Z,49.86
2024-01-20T11:56:57.377Z,49.92
2024-01-20T11:57:57.346Z,49.74
2024-01-20T11:58:57.380Z,50.04
2024-01-20T11:59:57.443Z,50.05
2024-01-20T12:00:57.492Z,50.00
2024-01-20T12:01:57.485Z,49.97
2024-01-20T12:02:57.563Z,50.08
2024-01-20T12:03:57.554Z,49.92
2024-01-20T12:05:02.260Z,50.15
2024-01-20T12:05:58.673Z,49.65
2024-01-20T12:06:57.625Z,48.47
2024-01-20T12:07:57.594Z,46.92
2024-01-20T12:08:57.647Z,46.70
2024-01-20T12:09:57.561Z,46.86
2024-01-20T12:10:57.564Z,50.17
2024-01-20T12:11:57.603Z,50.02
2024-01-20T12:12:57.554Z,50.77
2024-01-20T12:13:57.564Z,51.02
2024-01-20T12:14:57.651Z,49.82
2024-01-20T12:15:57.585Z,50.15
2024-01-20T12:16:57.574Z,50.00
2024-01-20T12:17:57.687Z,50.00
2024-01-20T12:18:57.657Z,50.00
2024-01-20T12:19:57.677Z,50.05
2024-01-20T12:20:57.657Z,50.42
2024-01-20T12:21:57.689Z,50.01
2024-01-20T12:22:57.742Z,50.36
2024-01-20T12:23:57.841Z,50.14
2024-01-20T12:24:57.835Z,50.00
2024-01-20T12:25:57.895Z,50.10
2024-01-20T12:26:57.985Z,50.00
2024-01-20T12:27:58.011Z,50.16
2024-01-20T12:28:58.059Z,50.46
2024-01-20T12:29:58.114Z,50.12
2024-01-20T12:30:58.164Z,50.08
2024-01-20T12:31:58.190Z,50.95
2024-01-20T12:32:58.411Z,53.55
2024-01-20T12:33:58.298Z,57.30
2024-01-20T12:34:58.294Z,59.03
2024-01-20T12:35:58.444Z,60.98
2024-01-20T12:36:58.348Z,66.83